Time;durP1;ratioP1;P1;durP2;ratioP2;P2;SDS_P1;SDS_P2;PMS_P1;PMS_P2;Temp;Humidity;BMP_temperature;BMP_pressure;BME280_temperature;BME280_humidity;BME280_pressure;Samples;Min_cycle;Max_cycle;Signal;HPM_P1;HPM_P2
2023/10/16 00:01:29;;;;;;;8.27;1.48;;;6.60;99.90;;;;;;5099811;28;20052;-79
2023/10/16 00:03:58;;;;;;;13.63;1.50;;;6.60;99.90;;;;;;5100567;28;20032;-78
2023/10/16 00:06:24;;;;;;;10.60;1.40;;;6.60;99.90;;;;;;5101920;28;20020;-79
2023/10/16 00:09:10;;;;;;;10.65;1.60;;;6.60;99.90;;;;;;5101722;28;20043;-78
2023/10/16 00:11:37;;;;;;;5.28;1.10;;;6.60;99.90;;;;;;5101906;28;20039;-81
2023/10/16 00:14:14;;;;;;;13.85;1.63;;;6.60;99.90;;;;;;5100386;28;20043;-78
2023/10/16 00:16:44;;;;;;;6.53;1.48;;;6.50;99.90;;;;;;5100383;28;20040;-79
2023/10/16 00:19:11;;;;;;;8.13;1.48;;;6.50;99.90;;;;;;5101835;28;20030;-78
2023/10/16 00:21:43;;;;;;;8.43;1.60;;;6.50;99.90;;;;;;5101203;28;20040;-76
2023/10/16 00:24:12;;;;;;;7.20;1.52;;;6.60;99.90;;;;;;5100532;28;20091;-83
2023/10/16 00:26:42;;;;;;;7.47;1.20;;;6.50;99.90;;;;;;5100110;28;20036;-81
2023/10/16 00:29:17;;;;;;;13.15;1.55;;;6.40;99.90;;;;;;5101572;28;20674;-78
2023/10/16 00:31:46;;;;;;;;;;;6.50;99.90;;;;;;5100831;28;20024;-78
2023/10/16 00:34:19;;;;;;;11.43;1.40;;;6.50;99.90;;;;;;5104673;28;19904;-80
2023/10/16 00:36:45;;;;;;;7.72;1.25;;;6.50;99.90;;;;;;5103716;28;20016;-78
2023/10/16 00:39:14;;;;;;;9.75;1.58;;;6.50;99.90;;;;;;5103961;28;20119;-78
2023/10/16 00:41:41;;;;;;;8.90;1.45;;;6.60;99.90;;;;;;5104471;28;20016;-77
2023/10/16 00:44:06;;;;;;;11.13;1.40;;;6.60;99.90;;;;;;5104184;28;20028;-76
2023/10/16 00:46:36;;;;;;;10.57;1.55;;;6.60;99.90;;;;;;5104632;28;20047;-78
2023/10/16 00:49:06;;;;;;;14.70;1.73;;;6.60;99.90;;;;;;5103687;28;20039;-79
2023/10/16 00:51:41;;;;;;;6.63;1.35;;;6.50;99.90;;;;;;5103512;28;20465;-79
2023/10/16 00:54:18;;;;;;;8.90;1.35;;;6.50;99.90;;;;;;5102896;28;20055;-81
2023/10/16 00:56:52;;;;;;;4.75;1.33;;;6.50;99.90;;;;;;5104095;28;20024;-75
2023/10/16 00:59:17;;;;;;;4.95;1.38;;;6.50;99.90;;;;;;5103310;28;20127;-77
2023/10/16 01:01:46;;;;;;;8.02;1.55;;;6.50;99.90;;;;;;5104555;28;20024;-80
2023/10/16 01:04:13;;;;;;;9.27;1.38;;;6.50;99.90;;;;;;5104908;28;20080;-69
2023/10/16 01:06:41;;;;;;;5.25;1.40;;;6.40;99.90;;;;;;5102946;28;20062;-80
2023/10/16 01:09:08;;;;;;;7.68;1.23;;;6.50;99.90;;;;;;5104235;28;20115;-74
2023/10/16 01:11:37;;;;;;;7.20;1.35;;;6.40;99.90;;;;;;5101045;28;20097;-77
2023/10/16 01:14:06;;;;;;;9.75;1.98;;;6.40;99.90;;;;;;5102876;28;20053;-78
2023/10/16 01:16:33;;;;;;;10.20;1.85;;;6.40;99.90;;;;;;5103777;28;20024;-79
2023/10/16 01:19:09;;;;;;;5.93;1.10;;;6.40;99.90;;;;;;5103582;28;20109;-79
2023/10/16 01:21:35;;;;;;;9.90;1.50;;;6.40;99.90;;;;;;5103102;28;20032;-76
2023/10/16 01:24:11;;;;;;;9.63;1.55;;;6.40;99.90;;;;;;5104327;28;20076;-79
2023/10/16 01:26:41;;;;;;;6.65;1.70;;;6.40;99.90;;;;;;5101474;28;20024;-75
2023/10/16 01:29:09;;;;;;;11.45;1.70;;;6.40;99.90;;;;;;5103328;28;20051;-80
2023/10/16 01:31:36;;;;;;;9.00;1.58;;;6.40;99.90;;;;;;5102373;28;20073;-73
2023/10/16 01:34:03;;;;;;;12.55;1.95;;;6.40;99.90;;;;;;5103032;28;20020;-79
2023/10/16 01:36:33;;;;;;;9.85;1.92;;;6.40;99.90;;;;;;5103180;28;20088;-78
2023/10/16 01:39:04;;;;;;;7.75;1.52;;;6.50;99.90;;;;;;5103606;28;20473;-78
2023/10/16 01:41:30;;;;;;;7.40;1.60;;;6.50;99.90;;;;;;5102543;28;20020;-79
2023/10/16 01:43:58;;;;;;;7.72;1.73;;;6.50;99.90;;;;;;5101366;28;20062;-77
2023/10/16 01:46:23;;;;;;;11.38;1.98;;;6.60;99.90;;;;;;5102510;28;20115;-79
2023/10/16 01:48:49;;;;;;;6.30;1.65;;;6.60;99.90;;;;;;5101621;28;20117;-78
2023/10/16 01:51:27;;;;;;;11.98;1.85;;;6.60;99.90;;;;;;5103379;28;20116;-78
2023/10/16 01:53:55;;;;;;;13.35;1.40;;;6.70;99.90;;;;;;5101920;28;20063;-79
2023/10/16 01:56:22;;;;;;;8.52;1.30;;;6.70;99.90;;;;;;5100788;28;20103;-79
2023/10/16 01:58:52;;;;;;;10.23;1.35;;;6.70;99.90;;;;;;5100660;28;20035;-77
2023/10/16 02:01:20;;;;;;;9.20;1.55;;;6.80;99.90;;;;;;5102975;28;20045;-77
2023/10/16 02:03:48;;;;;;;7.57;1.33;;;6.80;99.90;;;;;;5101610;28;20024;-77
2023/10/16 02:06:18;;;;;;;10.20;1.58;;;6.80;99.90;;;;;;5101893;28;20040;-76
2023/10/16 02:08:46;;;;;;;11.20;1.58;;;6.80;99.90;;;;;;5102728;28;20026;-80
2023/10/16 02:11:12;;;;;;;6.72;1.60;;;6.80;99.90;;;;;;5100847;28;20016;-78
2023/10/16 02:13:41;;;;;;;11.77;1.42;;;6.80;99.90;;;;;;5103376;28;20055;-75
2023/10/16 02:16:12;;;;;;;8.98;1.42;;;6.90;99.90;;;;;;5101112;28;20046;-78
2023/10/16 02:18:42;;;;;;;10.65;1.77;;;6.90;99.90;;;;;;5100595;28;20040;-76
2023/10/16 02:21:11;;;;;;;8.32;1.25;;;6.90;99.90;;;;;;5102409;28;20016;-79
2023/10/16 02:23:43;;;;;;;9.90;1.52;;;6.90;99.90;;;;;;5100944;28;20020;-78
2023/10/16 02:26:09;;;;;;;6.03;1.38;;;7.00;99.90;;;;;;5101916;28;20053;-77
2023/10/16 02:28:40;;;;;;;5.38;1.35;;;7.00;99.90;;;;;;5100011;28;20024;-75
2023/10/16 02:31:13;;;;;;;8.35;1.48;;;7.00;99.90;;;;;;5101500;28;20024;-76
2023/10/16 02:33:44;;;;;;;7.22;1.38;;;7.00;99.90;;;;;;5100824;28;20027;-77
2023/10/16 02:36:09;;;;;;;7.03;1.45;;;7.10;99.90;;;;;;5101519;28;20361;-77
2023/10/16 02:38:35;;;;;;;7.90;1.30;;;7.00;99.90;;;;;;5102463;28;20050;-77
2023/10/16 02:41:03;;;;;;;4.47;1.25;;;7.00;99.90;;;;;;5101240;28;20036;-75
2023/10/16 02:43:30;;;;;;;10.60;1.38;;;7.00;99.90;;;;;;5102229;28;20385;-78
2023/10/16 02:45:56;;;;;;;7.53;1.05;;;7.00;99.90;;;;;;5101919;28;20039;-77
2023/10/16 02:48:23;;;;;;;8.25;1.75;;;7.00;99.90;;;;;;5100100;28;20024;-76
2023/10/16 02:50:50;;;;;;;7.68;1.48;;;7.00;99.90;;;;;;5101135;28;20024;-77
2023/10/16 02:53:21;;;;;;;9.77;1.60;;;7.00;99.90;;;;;;5101650;28;20024;-75
2023/10/16 02:55:49;;;;;;;5.72;1.38;;;7.00;99.90;;;;;;5099339;28;20055;-78
2023/10/16 02:58:15;;;;;;;4.93;1.00;;;7.00;99.90;;;;;;5100162;28;20435;-76
2023/10/16 03:00:49;;;;;;;8.02;1.50;;;7.00;99.90;;;;;;5100290;28;20412;-73
2023/10/16 03:03:17;;;;;;;6.00;1.27;;;7.10;99.90;;;;;;5100944;28;20048;-78
2023/10/16 03:05:44;;;;;;;12.07;1.50;;;7.10;99.90;;;;;;5100523;28;20054;-77
2023/10/16 03:08:12;;;;;;;8.00;1.70;;;7.00;99.90;;;;;;5101889;28;20016;-72
2023/10/16 03:10:40;;;;;;;9.38;1.25;;;7.10;99.90;;;;;;5101567;28;20024;-78
2023/10/16 03:13:06;;;;;;;8.30;1.45;;;7.10;99.90;;;;;;5102216;28;20031;-74
2023/10/16 03:15:42;;;;;;;13.93;1.60;;;7.00;99.90;;;;;;5099973;28;20040;-77
2023/10/16 03:18:16;;;;;;;6.43;1.42;;;7.10;99.90;;;;;;5100793;28;20024;-78
2023/10/16 03:20:44;;;;;;;9.60;1.50;;;7.00;99.90;;;;;;5101520;28;20396;-77
2023/10/16 03:23:12;;;;;;;4.85;1.40;;;7.00;99.90;;;;;;5099899;28;20024;-77
2023/10/16 03:28:07;;;;;;;8.82;1.58;;;7.00;99.90;;;;;;5101141;28;20039;-78
2023/10/16 03:30:33;;;;;;;4.40;1.50;;;7.10;99.90;;;;;;5101909;28;20089;-77
2023/10/16 03:32:59;;;;;;;10.02;1.70;;;7.10;99.90;;;;;;5100770;28;20036;-78
2023/10/16 03:35:31;;;;;;;6.97;1.73;;;7.10;99.90;;;;;;5100364;28;20081;-76
2023/10/16 03:37:58;;;;;;;7.70;1.85;;;7.00;99.90;;;;;;5102280;28;20042;-72
2023/10/16 03:40:28;;;;;;;6.60;1.65;;;7.10;99.90;;;;;;5100718;28;20035;-73
2023/10/16 03:42:55;;;;;;;9.77;2.08;;;7.10;99.90;;;;;;5101739;28;20016;-73
2023/10/16 03:45:21;;;;;;;11.40;2.55;;;7.10;99.90;;;;;;5102052;28;20416;-73
2023/10/16 03:48:00;;;;;;;7.80;2.97;;;7.10;99.90;;;;;;5101868;28;20071;-72
2023/10/16 03:50:26;;;;;;;10.70;3.67;;;7.10;99.90;;;;;;5101493;28;20028;-76
2023/10/16 03:52:54;;;;;;;14.27;4.45;;;7.10;99.90;;;;;;5099894;28;20054;-77
2023/10/16 03:55:28;;;;;;;12.27;4.93;;;7.10;99.90;;;;;;5101678;28;20077;-74
2023/10/16 03:57:57;;;;;;;11.00;4.57;;;7.10;99.90;;;;;;5100514;28;20032;-76
2023/10/16 04:00:50;;;;;;;12.38;5.28;;;7.00;99.90;;;;;;5101783;28;20040;-78
2023/10/16 04:03:17;;;;;;;11.48;5.47;;;7.10;99.90;;;;;;5099405;28;20032;-77
2023/10/16 04:05:45;;;;;;;13.10;5.65;;;7.20;99.90;;;;;;5100525;28;20028;-76
2023/10/16 04:08:21;;;;;;;12.30;5.50;;;7.10;99.90;;;;;;5104167;28;20044;-74
2023/10/16 04:10:47;;;;;;;15.50;5.65;;;7.10;99.90;;;;;;5103297;28;20043;-77
2023/10/16 04:13:14;;;;;;;17.15;6.30;;;7.10;99.90;;;;;;5104439;28;20024;-75
2023/10/16 04:41:37;;;;;;;9.88;3.55;;;7.10;99.90;;;;;;5105121;28;20047;-78
2023/10/16 04:50:29;;;;;;;12.80;4.25;;;7.20;99.90;;;;;;5105048;28;20035;-77
2023/10/16 05:06:27;;;;;;;11.30;3.50;;;7.20;99.90;;;;;;5104844;28;20020;-79
2023/10/16 05:17:59;;;;;;;14.50;4.30;;;7.10;99.90;;;;;;5086095;28;20218;-75
2023/10/16 06:15:26;;;;;;;20.17;9.32;;;7.30;99.90;;;;;;5021751;28;20085;-77
2023/10/16 06:17:52;;;;;;;24.25;9.88;;;7.40;99.90;;;;;;5088401;28;20388;-74
2023/10/16 06:20:21;;;;;;;25.02;10.00;;;7.40;99.90;;;;;;5102503;28;20115;-80
2023/10/16 06:22:51;;;;;;;18.70;9.32;;;7.40;99.90;;;;;;5103482;28;20032;-77
2023/10/16 06:25:19;;;;;;;20.63;9.27;;;7.40;99.90;;;;;;5101859;28;20392;-81
2023/10/16 06:27:46;;;;;;;19.50;9.38;;;7.40;99.90;;;;;;5102295;28;20031;-80
2023/10/16 06:30:19;;;;;;;22.30;9.98;;;7.40;99.90;;;;;;5100433;28;20024;-73
2023/10/16 06:32:44;;;;;;;18.70;9.98;;;7.40;99.90;;;;;;5102858;28;20016;-80
2023/10/16 06:35:14;;;;;;;19.85;9.93;;;7.30;99.90;;;;;;5103249;28;20053;-79
2023/10/16 06:37:41;;;;;;;21.50;9.75;;;7.40;99.90;;;;;;5098369;28;20027;-83
2023/10/16 06:40:17;;;;;;;21.35;10.50;;;7.40;99.90;;;;;;5100667;28;20036;-81
2023/10/16 06:42:46;;;;;;;22.42;9.43;;;7.40;99.90;;;;;;5101886;28;20031;-74
2023/10/16 06:45:40;;;;;;;21.38;9.93;;;7.40;99.90;;;;;;5102470;28;20020;-79
2023/10/16 06:48:08;;;;;;;23.77;10.37;;;7.40;99.90;;;;;;5103029;28;20081;-76
2023/10/16 06:50:35;;;;;;;28.45;11.07;;;7.50;99.90;;;;;;5101279;28;20069;-74
2023/10/16 06:53:01;;;;;;;21.42;10.18;;;7.60;99.90;;;;;;5100816;28;20020;-76
2023/10/16 06:55:26;;;;;;;23.25;11.07;;;7.50;99.90;;;;;;5101567;28;20076;-76
2023/10/16 06:57:52;;;;;;;21.08;10.05;;;7.60;99.90;;;;;;5102936;28;20028;-77
2023/10/16 07:00:31;;;;;;;24.58;9.88;;;7.60;99.90;;;;;;5101098;28;20119;-78
2023/10/16 07:02:58;;;;;;;20.15;9.05;;;7.60;99.90;;;;;;5103083;28;20028;-77
2023/10/16 07:05:27;;;;;;;18.27;9.40;;;7.80;99.90;;;;;;5102705;28;20058;-77
2023/10/16 07:07:56;;;;;;;17.60;8.77;;;7.70;99.90;;;;;;5100895;28;20522;-75
2023/10/16 07:10:22;;;;;;;18.50;8.38;;;7.70;99.90;;;;;;5100857;28;20042;-73
2023/10/16 07:13:02;;;;;;;19.75;8.75;;;7.80;99.90;;;;;;5100513;28;20617;-75
2023/10/16 07:15:31;;;;;;;15.75;8.18;;;7.70;99.90;;;;;;5100965;28;20020;-76
2023/10/16 07:18:16;;;;;;;20.55;9.07;;;7.70;99.90;;;;;;5101174;28;20039;-76
2023/10/16 07:21:07;;;;;;;;;;;7.70;99.90;;;;;;5101055;28;20032;-77
2023/10/16 07:23:34;;;;;;;14.55;8.05;;;7.80;99.90;;;;;;5102382;28;19904;-72
2023/10/16 07:26:10;;;;;;;22.42;9.10;;;7.70;99.90;;;;;;5102277;28;20020;-78
2023/10/16 07:28:36;;;;;;;19.88;8.68;;;7.90;99.90;;;;;;5100717;28;20099;-76
2023/10/16 07:31:05;;;;;;;21.83;8.63;;;7.80;99.90;;;;;;5100776;28;20020;-79
2023/10/16 07:33:34;;;;;;;16.15;8.15;;;7.90;99.90;;;;;;5100422;28;20123;-75
2023/10/16 07:36:00;;;;;;;18.50;8.00;;;8.00;99.90;;;;;;5100577;28;20055;-77
2023/10/16 07:38:28;;;;;;;13.95;7.72;;;8.00;99.90;;;;;;5099192;28;20039;-80
2023/10/16 07:40:59;;;;;;;18.63;8.38;;;8.00;99.90;;;;;;5098860;28;20012;-76
2023/10/16 07:43:27;;;;;;;19.95;8.10;;;8.00;99.90;;;;;;5100611;28;20485;-77
2023/10/16 07:48:51;;;;;;;15.75;7.93;;;8.10;99.90;;;;;;5100706;28;20024;-81
2023/10/16 07:51:20;;;;;;;15.35;7.18;;;8.20;99.90;;;;;;5100652;28;20084;-73
2023/10/16 07:53:49;;;;;;;15.48;7.53;;;8.20;99.90;;;;;;5099189;28;20056;-80
2023/10/16 07:56:25;;;;;;;15.18;7.07;;;8.30;99.90;;;;;;5099229;28;20020;-80
2023/10/16 07:58:56;;;;;;;16.25;7.45;;;8.30;99.90;;;;;;5100516;28;20083;-80
2023/10/16 08:04:19;;;;;;;12.27;6.88;;;8.30;99.90;;;;;;5100399;28;20445;-74
2023/10/16 08:06:45;;;;;;;12.20;6.32;;;8.40;99.90;;;;;;5099069;28;20035;-81
2023/10/16 08:11:57;;;;;;;12.07;5.35;;;8.40;99.90;;;;;;5100969;28;20032;-80
2023/10/16 08:14:27;;;;;;;9.88;5.25;;;8.40;99.90;;;;;;5099933;28;20044;-78
2023/10/16 08:17:04;;;;;;;14.43;5.57;;;8.40;99.90;;;;;;5100058;28;20032;-82
2023/10/16 08:19:34;;;;;;;13.80;5.07;;;8.60;99.90;;;;;;5100304;28;20036;-74
2023/10/16 08:22:03;;;;;;;10.98;5.30;;;8.60;99.90;;;;;;5101966;28;20028;-73
2023/10/16 08:24:29;;;;;;;9.07;4.70;;;8.60;99.90;;;;;;5100455;28;20032;-77
2023/10/16 08:27:08;;;;;;;12.63;5.07;;;8.60;99.90;;;;;;5101267;28;20023;-76
2023/10/16 08:29:51;;;;;;;13.20;4.78;;;8.60;99.90;;;;;;5101381;28;20016;-77
2023/10/16 08:35:09;;;;;;;11.48;4.68;;;8.60;99.90;;;;;;5095376;28;20585;-77
2023/10/16 08:37:34;;;;;;;15.43;4.78;;;8.60;99.90;;;;;;5100131;28;20139;-77
2023/10/16 08:40:00;;;;;;;12.63;4.93;;;8.70;99.90;;;;;;5099654;28;20070;-79
2023/10/16 08:42:25;;;;;;;11.65;5.07;;;8.60;99.90;;;;;;5101757;28;20039;-78
2023/10/16 08:44:51;;;;;;;14.07;5.25;;;8.70;99.90;;;;;;5100080;28;20059;-78
2023/10/16 08:47:24;;;;;;;10.75;5.38;;;8.80;99.90;;;;;;5100745;28;20043;-78
2023/10/16 08:49:54;;;;;;;9.80;5.43;;;8.80;99.90;;;;;;5099523;28;20036;-77
2023/10/16 08:52:22;;;;;;;11.20;5.97;;;8.80;99.90;;;;;;5099784;28;20074;-77
2023/10/16 08:57:25;;;;;;;13.73;5.85;;;8.90;99.90;;;;;;5104608;28;20048;-78
2023/10/16 08:59:52;;;;;;;10.13;5.40;;;8.80;99.90;;;;;;5102211;28;20043;-78
2023/10/16 09:02:20;;;;;;;12.38;5.50;;;9.00;99.90;;;;;;5104041;28;20048;-76
2023/10/16 09:04:52;;;;;;;11.93;4.90;;;9.00;99.90;;;;;;5091245;28;20255;-77
2023/10/16 09:07:19;;;;;;;9.98;5.18;;;9.10;99.90;;;;;;5101711;28;20024;-77
2023/10/16 09:09:48;;;;;;;8.48;5.10;;;9.10;99.90;;;;;;5100506;28;20032;-76
2023/10/16 09:12:26;;;;;;;12.77;5.07;;;9.30;99.90;;;;;;5101927;28;20050;-77
2023/10/16 09:14:52;;;;;;;8.93;4.50;;;9.40;99.90;;;;;;5102632;28;20401;-77
2023/10/16 09:17:22;;;;;;;12.15;5.22;;;9.40;99.90;;;;;;5096979;28;20036;-78
2023/10/16 09:19:48;;;;;;;14.43;5.00;;;9.50;99.90;;;;;;5090314;28;20052;-75
2023/10/16 09:22:15;;;;;;;10.60;4.13;;;9.70;99.90;;;;;;5093680;28;20032;-76
2023/10/16 09:24:45;;;;;;;10.38;4.32;;;9.90;99.90;;;;;;5095069;28;20024;-72
2023/10/16 09:27:22;;;;;;;9.43;3.95;;;10.00;99.90;;;;;;5108259;28;20142;-76
2023/10/16 09:29:53;;;;;;;10.02;3.80;;;10.00;99.90;;;;;;5099764;28;20028;-76
2023/10/16 09:32:40;;;;;;;13.45;4.30;;;9.90;99.90;;;;;;5102836;28;20039;-75
2023/10/16 09:35:14;;;;;;;11.43;4.90;;;9.90;99.90;;;;;;5102642;28;20478;-77
2023/10/16 09:37:40;;;;;;;13.07;5.05;;;10.00;99.90;;;;;;5103215;28;20028;-76
2023/10/16 09:40:58;;;;;;;12.02;4.43;;;10.00;99.90;;;;;;5101438;28;20048;-74
2023/10/16 09:43:06;;;;;;;14.35;5.35;;;9.90;99.90;;;;;;5098550;28;20112;-74
2023/10/16 09:45:36;;;;;;;11.48;4.75;;;9.90;99.90;;;;;;5101575;28;20056;-74
2023/10/16 09:48:08;;;;;;;8.02;4.30;;;10.00;99.90;;;;;;5103140;28;20024;-73
2023/10/16 09:50:37;;;;;;;10.43;4.32;;;10.00;99.90;;;;;;5103146;28;20024;-74
2023/10/16 09:53:07;;;;;;;11.93;5.03;;;10.00;99.90;;;;;;5103481;28;20013;-73
2023/10/16 09:55:44;;;;;;;11.18;5.18;;;10.10;99.90;;;;;;5102956;28;20036;-73
2023/10/16 09:58:11;;;;;;;12.07;4.90;;;10.00;99.90;;;;;;5103716;28;20046;-73
2023/10/16 10:00:46;;;;;;;9.98;4.22;;;10.00;99.90;;;;;;5103462;28;20036;-74
2023/10/16 10:03:14;;;;;;;14.98;4.60;;;10.10;99.90;;;;;;5103247;28;20044;-74
2023/10/16 10:05:50;;;;;;;9.95;5.05;;;10.00;99.90;;;;;;5103194;28;20036;-74
2023/10/16 10:08:27;;;;;;;5.15;2.83;;;10.20;99.90;;;;;;5101963;28;20024;-73
2023/10/16 10:11:17;;;;;;;5.78;2.45;;;10.20;99.90;;;;;;5103808;28;20030;-73
2023/10/16 10:14:08;;;;;;;5.53;2.72;;;10.20;99.90;;;;;;5103492;28;20069;-74
2023/10/16 10:16:35;;;;;;;8.07;2.67;;;10.30;99.90;;;;;;5102513;28;20093;-75
2023/10/16 10:19:04;;;;;;;7.93;2.58;;;10.30;99.90;;;;;;5103359;28;20028;-74
2023/10/16 10:21:44;;;;;;;5.35;2.00;;;10.30;99.90;;;;;;5103583;28;20043;-74
2023/10/16 10:24:15;;;;;;;6.43;2.20;;;10.40;99.90;;;;;;5102755;28;20019;-75
2023/10/16 10:26:48;;;;;;;4.60;1.65;;;10.50;99.90;;;;;;5103044;28;20020;-75
2023/10/16 10:29:16;;;;;;;4.95;1.50;;;10.70;99.90;;;;;;5101655;28;20032;-74
2023/10/16 10:31:45;;;;;;;6.25;2.00;;;10.80;99.90;;;;;;5101497;28;20030;-75
2023/10/16 10:34:23;;;;;;;5.82;1.35;;;10.90;99.90;;;;;;5101789;28;20460;-75
2023/10/16 10:36:53;;;;;;;6.40;1.55;;;11.00;99.90;;;;;;5102415;28;20028;-72
2023/10/16 10:39:21;;;;;;;4.68;1.30;;;11.10;99.90;;;;;;5102589;28;20123;-75
2023/10/16 10:41:48;;;;;;;6.03;0.85;;;11.30;99.90;;;;;;5102426;28;20054;-77
2023/10/16 10:44:16;;;;;;;2.88;0.65;;;11.30;99.90;;;;;;5102706;28;20032;-75
2023/10/16 10:46:49;;;;;;;2.83;0.68;;;11.20;99.90;;;;;;5100214;28;20024;-77
2023/10/16 10:49:16;;;;;;;3.38;0.70;;;11.30;99.90;;;;;;5103031;28;20018;-76
2023/10/16 10:51:47;;;;;;;4.82;0.95;;;11.20;99.90;;;;;;5102027;28;20052;-75
2023/10/16 10:54:13;;;;;;;1.83;0.70;;;11.20;99.90;;;;;;5100242;28;20048;-74
2023/10/16 10:56:50;;;;;;;5.03;1.02;;;11.10;99.90;;;;;;5102756;28;20032;-77
2023/10/16 10:59:41;;;;;;;3.20;0.70;;;11.20;99.90;;;;;;5102338;28;20059;-80
2023/10/16 11:04:45;;;;;;;1.60;0.60;;;11.50;99.90;;;;;;5101945;28;20044;-80
2023/10/16 11:07:24;;;;;;;5.78;0.45;;;11.60;99.90;;;;;;5102598;28;20384;-78
2023/10/16 11:09:52;;;;;;;2.47;0.40;;;11.60;99.90;;;;;;5102217;28;20027;-78
2023/10/16 11:12:24;;;;;;;3.60;0.50;;;11.60;99.90;;;;;;5102160;28;20020;-77
2023/10/16 11:14:50;;;;;;;5.38;0.90;;;11.60;99.90;;;;;;5099986;28;20028;-77
2023/10/16 11:17:46;;;;;;;4.82;0.90;;;11.40;99.90;;;;;;5101767;28;20118;-76
2023/10/16 11:20:36;;;;;;;4.70;0.95;;;11.30;99.90;;;;;;5098453;28;20103;-73
2023/10/16 11:23:00;;;;;;;3.47;0.70;;;11.30;99.90;;;;;;5099251;28;20040;-74
2023/10/16 11:25:29;;;;;;;3.90;0.68;;;11.10;99.90;;;;;;5092499;28;20029;-72
2023/10/16 11:28:02;;;;;;;3.05;0.80;;;11.00;99.90;;;;;;5095199;28;20055;-74
2023/10/16 11:30:32;;;;;;;2.13;0.53;;;10.80;99.90;;;;;;5095343;28;20024;-73
2023/10/16 11:32:57;;;;;;;1.20;0.50;;;10.90;99.90;;;;;;5096738;28;20024;-72
2023/10/16 11:35:26;;;;;;;2.08;0.82;;;10.80;99.90;;;;;;5101235;28;20058;-73
2023/10/16 11:37:59;;;;;;;7.25;1.23;;;10.90;99.90;;;;;;5099066;28;20043;-73
2023/10/16 11:40:33;;;;;;;3.22;0.88;;;11.00;99.90;;;;;;5100167;28;20793;-73
2023/10/16 11:42:59;;;;;;;;;;;11.00;99.90;;;;;;5101549;28;20024;-73
2023/10/16 11:45:24;;;;;;;6.65;1.17;;;11.10;99.90;;;;;;5099391;28;20462;-74
2023/10/16 11:50:40;;;;;;;4.55;0.68;;;11.50;99.90;;;;;;5093625;28;20030;-72
2023/10/16 11:53:07;;;;;;;3.85;0.68;;;11.70;99.90;;;;;;5096213;28;20032;-75
2023/10/16 11:55:41;;;;;;;1.40;0.68;;;11.80;99.90;;;;;;5098285;28;20067;-73
2023/10/16 11:58:08;;;;;;;3.63;0.55;;;12.00;99.90;;;;;;5101371;28;20043;-73
2023/10/16 12:00:43;;;;;;;1.77;0.50;;;12.10;99.90;;;;;;5100417;28;20075;-72
2023/10/16 12:03:14;;;;;;;;;;;12.40;99.90;;;;;;5102555;28;20020;-78
2023/10/16 12:05:43;;;;;;;2.53;0.40;;;12.60;99.90;;;;;;5100626;28;19919;-74
2023/10/16 12:08:18;;;;;;;2.72;0.52;;;13.00;99.90;;;;;;5100108;28;20054;-75
2023/10/16 12:10:46;;;;;;;3.25;0.88;;;13.50;99.90;;;;;;5100379;28;20066;-75
2023/10/16 12:13:13;;;;;;;3.13;0.80;;;14.00;99.90;;;;;;5101498;28;20024;-76
2023/10/16 12:15:40;;;;;;;1.75;0.35;;;14.50;99.90;;;;;;5101646;28;20364;-78
2023/10/16 12:18:09;;;;;;;4.47;0.38;;;14.50;99.90;;;;;;5101481;28;20108;-78
2023/10/16 12:20:37;;;;;;;1.80;0.43;;;14.30;99.90;;;;;;5100129;28;20475;-74
2023/10/16 12:23:04;;;;;;;1.38;0.47;;;14.20;99.90;;;;;;5101152;28;20020;-79
2023/10/16 12:25:30;;;;;;;2.88;0.60;;;13.70;99.90;;;;;;5101894;28;20487;-78
2023/10/16 12:27:56;;;;;;;4.95;0.73;;;13.30;99.90;;;;;;5100714;28;20065;-78
2023/10/16 12:30:22;;;;;;;6.45;0.70;;;12.90;99.90;;;;;;5105479;28;20032;-75
2023/10/16 12:32:49;;;;;;;4.65;0.70;;;12.50;99.90;;;;;;5105858;28;20036;-77
2023/10/16 12:35:18;;;;;;;3.20;0.63;;;12.20;99.90;;;;;;5104209;28;20028;-78
2023/10/16 12:37:44;;;;;;;5.28;0.70;;;12.00;99.90;;;;;;5104100;28;20107;-77
2023/10/16 12:40:34;;;;;;;5.53;0.80;;;11.90;99.90;;;;;;5104252;28;20032;-77
2023/10/16 12:43:00;;;;;;;6.85;0.93;;;11.70;99.90;;;;;;5103984;28;20016;-77
2023/10/16 12:45:27;;;;;;;2.00;0.75;;;11.60;99.90;;;;;;5104883;28;20103;-76
2023/10/16 12:47:54;;;;;;;3.50;0.90;;;11.60;99.90;;;;;;5105449;28;20028;-77
2023/10/16 12:50:27;;;;;;;4.63;0.85;;;11.60;99.90;;;;;;5102995;28;20027;-78
2023/10/16 12:52:58;;;;;;;4.82;0.98;;;11.60;99.90;;;;;;5105145;28;20083;-77
2023/10/16 12:55:24;;;;;;;3.35;0.82;;;11.60;99.90;;;;;;5104946;28;20079;-76
2023/10/16 12:57:50;;;;;;;4.65;0.77;;;11.60;99.90;;;;;;5103093;28;20031;-77
2023/10/16 13:00:17;;;;;;;3.33;0.80;;;11.60;99.90;;;;;;5105142;28;20032;-78
2023/10/16 13:02:45;;;;;;;3.97;0.70;;;11.70;99.90;;;;;;5104586;28;20012;-78
2023/10/16 13:05:15;;;;;;;8.63;0.70;;;11.80;99.90;;;;;;5104338;28;20056;-77
2023/10/16 13:07:45;;;;;;;5.05;0.90;;;11.90;99.90;;;;;;5103734;28;20024;-77
2023/10/16 13:10:30;;;;;;;4.03;0.90;;;11.90;99.90;;;;;;5103048;28;20482;-79
2023/10/16 13:12:57;;;;;;;7.18;0.90;;;12.00;99.90;;;;;;5104810;28;20043;-76
2023/10/16 13:15:29;;;;;;;4.20;0.70;;;12.10;99.90;;;;;;5104087;28;20346;-74
2023/10/16 13:17:56;;;;;;;6.75;0.95;;;12.20;99.90;;;;;;5099205;28;20028;-76
2023/10/16 13:20:28;;;;;;;4.25;0.93;;;12.30;99.90;;;;;;5095593;28;20048;-78
2023/10/16 13:22:55;;;;;;;4.72;0.70;;;12.50;99.90;;;;;;5104049;28;20024;-78
2023/10/16 13:25:28;;;;;;;5.15;2.70;;;12.80;99.90;;;;;;5103376;28;20020;-78
2023/10/16 13:27:54;;;;;;;7.57;1.92;;;13.00;99.90;;;;;;5103548;28;20043;-77
2023/10/16 13:30:22;;;;;;;4.68;0.88;;;13.00;99.90;;;;;;5102615;28;20020;-82
2023/10/16 13:32:48;;;;;;;4.93;1.30;;;13.10;99.90;;;;;;5103541;28;20136;-76
2023/10/16 13:35:20;;;;;;;7.55;1.55;;;13.20;99.90;;;;;;5104830;28;20022;-76
2023/10/16 13:37:48;;;;;;;6.30;1.30;;;13.30;99.90;;;;;;5102777;28;20032;-77
2023/10/16 13:40:20;;;;;;;4.20;1.20;;;13.40;99.90;;;;;;5103202;28;20024;-77
2023/10/16 13:43:00;;;;;;;4.13;1.10;;;13.50;99.90;;;;;;5103253;28;20426;-76
2023/10/16 13:45:27;;;;;;;4.50;1.20;;;13.60;99.90;;;;;;5103936;28;20032;-74
2023/10/16 13:47:54;;;;;;;3.80;0.80;;;13.80;99.90;;;;;;5101006;28;20119;-75
2023/10/16 13:50:24;;;;;;;5.05;1.00;;;14.00;99.90;;;;;;5101082;28;20028;-75
2023/10/16 13:52:54;;;;;;;6.47;1.20;;;14.10;99.90;;;;;;5103635;28;20376;-77
2023/10/16 13:55:23;;;;;;;4.25;0.90;;;14.10;99.90;;;;;;5102024;28;20048;-75
2023/10/16 13:57:51;;;;;;;6.13;1.65;;;14.30;99.90;;;;;;5099166;28;20071;-76
2023/10/16 14:00:38;;;;;;;5.97;1.92;;;14.50;99.90;;;;;;5102115;28;20044;-74
2023/10/16 14:03:17;;;;;;;8.05;1.55;;;14.60;99.90;;;;;;5103970;28;20027;-75
2023/10/16 14:05:47;;;;;;;6.90;1.50;;;14.90;99.90;;;;;;5102202;28;20045;-75
2023/10/16 14:08:18;;;;;;;8.65;1.10;;;15.30;99.90;;;;;;5102535;28;20069;-76
2023/10/16 14:10:52;;;;;;;6.15;1.00;;;15.50;99.90;;;;;;5103587;28;20039;-74
2023/10/16 14:13:19;;;;;;;6.55;0.98;;;15.30;99.90;;;;;;5101772;28;20016;-75
2023/10/16 14:15:46;;;;;;;5.60;1.10;;;15.40;99.90;;;;;;5101069;28;20040;-74
2023/10/16 14:18:15;;;;;;;5.82;1.00;;;15.70;99.90;;;;;;5099148;28;20024;-79
2023/10/16 14:20:45;;;;;;;6.30;1.10;;;15.60;99.90;;;;;;5100053;28;20054;-78
2023/10/16 14:23:19;;;;;;;8.07;1.00;;;15.20;99.90;;;;;;5099496;28;20032;-79
2023/10/16 14:25:47;;;;;;;5.10;0.80;;;14.80;99.90;;;;;;5103138;28;20024;-75
2023/10/16 14:31:11;;;;;;;5.13;1.00;;;14.10;99.90;;;;;;5100007;28;20074;-76
2023/10/16 14:33:37;;;;;;;3.60;1.20;;;13.70;99.90;;;;;;5103177;28;20083;-77
2023/10/16 14:36:04;;;;;;;4.43;0.90;;;13.40;99.90;;;;;;5102361;28;20039;-76
2023/10/16 14:38:31;;;;;;;6.60;1.30;;;13.20;99.90;;;;;;5098391;28;20046;-73
2023/10/16 14:41:04;;;;;;;6.65;1.35;;;12.90;99.90;;;;;;5102051;28;20036;-77
2023/10/16 14:43:30;;;;;;;6.97;1.15;;;12.80;99.90;;;;;;5099375;28;20081;-77
2023/10/16 14:45:59;;;;;;;5.60;0.90;;;12.60;99.90;;;;;;5101184;28;20027;-78
2023/10/16 14:48:24;;;;;;;3.80;0.90;;;12.40;99.90;;;;;;5100971;28;20028;-75
2023/10/16 14:50:50;;;;;;;9.00;1.30;;;12.40;99.90;;;;;;5102184;28;20020;-75
2023/10/16 14:53:19;;;;;;;5.22;1.30;;;12.30;99.90;;;;;;5100362;28;20035;-77
2023/10/16 14:55:48;;;;;;;11.02;1.45;;;12.30;99.90;;;;;;5102364;28;20052;-77
2023/10/16 14:58:14;;;;;;;6.15;1.25;;;12.20;99.90;;;;;;5091642;28;20085;-77
2023/10/16 15:00:45;;;;;;;4.20;1.35;;;12.20;99.90;;;;;;5087887;28;20048;-76
2023/10/16 15:03:13;;;;;;;7.65;2.20;;;12.10;99.90;;;;;;5101330;28;20032;-76
2023/10/16 15:05:41;;;;;;;6.35;2.35;;;12.10;99.90;;;;;;5102364;28;20484;-75
2023/10/16 15:08:13;;;;;;;8.98;2.28;;;12.00;99.90;;;;;;5102896;28;20012;-76
2023/10/16 15:10:45;;;;;;;7.05;1.75;;;11.90;99.90;;;;;;5100362;28;20117;-75
2023/10/16 15:13:12;;;;;;;5.43;2.08;;;11.90;99.90;;;;;;5102356;28;20073;-75
2023/10/16 15:15:43;;;;;;;6.10;1.30;;;11.80;99.90;;;;;;5099899;28;20043;-74
2023/10/16 15:18:09;;;;;;;10.02;1.15;;;11.70;99.90;;;;;;5098166;28;20031;-75
2023/10/16 15:20:36;;;;;;;4.00;1.50;;;11.70;99.90;;;;;;5101771;28;20111;-77